Time;durP1;ratioP1;P1;durP2;ratioP2;P2;SDS_P1;SDS_P2;PMS_P1;PMS_P2;Temp;Humidity;BMP_temperature;BMP_pressure;BME280_temperature;BME280_humidity;BME280_pressure;Samples;Min_cycle;Max_cycle;Signal;HPM_P1;HPM_P2
2022/03/25 00:01:09;;;;;;;23.13;10.52;;;;;;;12.72;29.20;97009.53;5002951;28;20057;-57
2022/03/25 00:03:37;;;;;;;19.45;10.43;;;;;;;12.64;29.38;97013.44;5004462;28;20085;-58
2022/03/25 00:06:04;;;;;;;21.05;10.75;;;;;;;12.63;29.33;97007.06;5004157;28;20551;-56
2022/03/25 00:08:31;;;;;;;19.70;10.48;;;;;;;12.19;29.38;96945.16;5004602;28;20057;-65
2022/03/25 00:10:58;;;;;;;22.70;11.18;;;;;;;12.44;29.75;97010.06;5002950;28;20149;-58
2022/03/25 00:13:24;;;;;;;24.13;12.00;;;;;;;12.25;30.79;97009.50;5004130;28;20142;-57
2022/03/25 00:15:51;;;;;;;24.63;12.00;;;;;;;12.11;31.19;97010.16;5004218;28;20053;-58
2022/03/25 00:18:18;;;;;;;34.33;17.15;;;;;;;11.89;31.45;97023.00;5003785;28;20049;-65
2022/03/25 00:20:45;;;;;;;21.70;12.13;;;;;;;11.95;31.62;97020.66;5004293;28;20440;-57
2022/03/25 00:23:11;;;;;;;23.73;10.82;;;;;;;11.80;31.83;97014.19;5002670;28;20192;-58
2022/03/25 00:25:38;;;;;;;20.15;11.05;;;;;;;11.67;32.25;97025.91;5003547;28;20060;-60
2022/03/25 00:28:05;;;;;;;19.30;10.57;;;;;;;11.43;32.09;97023.59;5004120;28;20053;-65
2022/03/25 00:30:33;;;;;;;27.85;10.52;;;;;;;11.63;31.64;97025.06;5002851;28;20046;-58
2022/03/25 00:33:00;;;;;;;25.27;11.48;;;;;;;11.49;32.37;97030.41;5018963;28;20077;-65
2022/03/25 00:35:27;;;;;;;20.38;11.27;;;;;;;10.83;32.92;96955.44;5003665;28;20132;-65
2022/03/25 00:37:53;;;;;;;27.50;11.70;;;;;;;11.27;32.74;97017.44;5007458;28;20215;-57
2022/03/25 00:40:20;;;;;;;23.20;12.10;;;;;;;11.19;32.67;97004.66;5021753;28;20136;-65
2022/03/25 00:42:47;;;;;;;26.13;12.73;;;;;;;11.30;32.58;97042.41;5022265;28;20124;-57
2022/03/25 00:45:14;;;;;;;26.08;12.15;;;;;;;11.18;32.69;97042.66;5023255;28;20049;-57
2022/03/25 00:47:41;;;;;;;25.83;13.38;;;;;;;11.05;32.99;97040.47;5023923;28;20045;-58
2022/03/25 00:50:08;;;;;;;33.60;16.42;;;;;;;10.61;33.24;96985.56;5021996;28;20049;-60
2022/03/25 00:52:35;;;;;;;33.35;14.57;;;;;;;10.82;33.52;97023.09;5025701;28;20140;-58
2022/03/25 00:55:03;;;;;;;31.65;13.52;;;;;;;10.86;33.53;97051.66;5027530;28;20079;-57
2022/03/25 00:57:29;;;;;;;34.63;14.25;;;;;;;10.21;33.80;96962.38;5027555;28;20500;-57
2022/03/25 00:59:56;;;;;;;24.40;11.75;;;;;;;10.57;33.48;96990.25;5027535;28;20057;-64
2022/03/25 01:02:23;;;;;;;27.63;12.75;;;;;;;10.95;33.47;97033.59;5026100;28;20136;-64
2022/03/25 01:04:50;;;;;;;21.30;10.75;;;;;;;11.17;32.82;97040.25;5026607;28;20049;-57
2022/03/25 01:07:17;;;;;;;17.20;9.88;;;;;;;10.92;32.36;96944.88;5026296;28;20057;-58
2022/03/25 01:09:44;;;;;;;20.02;10.25;;;;;;;11.32;32.13;97008.75;5027227;28;20049;-64
2022/03/25 01:12:11;;;;;;;20.15;9.75;;;;;;;11.37;31.92;97005.66;5027661;28;20049;-65
2022/03/25 01:14:38;;;;;;;23.15;11.48;;;;;;;11.80;31.78;97035.59;5027181;28;20088;-58
2022/03/25 01:17:05;;;;;;;21.90;11.18;;;;;;;11.99;31.24;97060.41;5027312;28;20467;-59
2022/03/25 01:19:34;;;;;;;24.45;11.30;;;;;;;12.12;31.03;97064.53;5026994;28;20212;-65
2022/03/25 01:22:03;;;;;;;19.48;9.88;;;;;;;11.78;31.78;97018.50;5025933;28;20124;-57
2022/03/25 01:24:30;;;;;;;19.23;9.85;;;;;;;11.69;32.20;97073.50;5025392;28;20081;-57
2022/03/25 01:26:58;;;;;;;24.73;10.40;;;;;;;11.10;32.33;97023.50;5026784;28;20064;-65
2022/03/25 01:29:24;;;;;;;25.83;11.18;;;;;;;11.06;32.88;97011.56;5027243;28;20447;-59
2022/03/25 01:31:51;;;;;;;25.45;10.85;;;;;;;11.39;32.93;97084.56;5026941;28;20053;-57
2022/03/25 01:34:18;;;;;;;34.05;11.60;;;;;;;11.30;33.22;97088.78;5027021;28;20127;-58
2022/03/25 01:36:46;;;;;;;21.65;9.77;;;;;;;11.14;33.14;97085.34;5026749;28;20057;-65
2022/03/25 01:39:13;;;;;;;19.08;9.45;;;;;;;10.87;33.79;97080.97;5012575;28;20157;-57
2022/03/25 01:41:40;;;;;;;33.53;13.38;;;;;;;10.55;34.18;97069.34;5007251;28;20058;-65
2022/03/25 01:44:09;;;;;;;31.50;13.02;;;;;;;10.61;34.45;97082.53;5005447;28;20128;-57
2022/03/25 01:46:37;;;;;;;22.23;9.95;;;;;;;10.39;34.30;97066.69;5006998;28;20141;-57
2022/03/25 01:49:05;;;;;;;25.45;11.00;;;;;;;9.86;34.87;96998.47;5006712;28;20073;-65
2022/03/25 01:51:36;;;;;;;23.80;11.32;;;;;;;10.37;35.02;97098.69;5006697;28;20072;-64
2022/03/25 01:54:18;;;;;;;18.13;10.13;;;;;;;10.36;35.06;97097.91;5007407;28;20057;-64
2022/03/25 01:56:48;;;;;;;19.10;10.25;;;;;;;10.20;35.62;97097.19;5006917;28;20535;-65
2022/03/25 01:59:16;;;;;;;19.67;9.85;;;;;;;9.66;35.54;97049.44;5006829;28;20061;-65
2022/03/25 02:01:43;;;;;;;24.40;9.75;;;;;;;9.57;36.09;97056.34;5006738;28;20069;-65
2022/03/25 02:04:10;;;;;;;22.70;10.35;;;;;;;9.83;36.18;97104.31;5005326;28;20046;-65
2022/03/25 02:06:37;;;;;;;18.98;10.02;;;;;;;9.66;36.50;97107.50;5006671;28;20100;-65
2022/03/25 02:09:03;;;;;;;19.33;9.65;;;;;;;9.67;37.13;97100.84;5006169;28;20608;-64
2022/03/25 02:11:31;;;;;;;19.00;9.73;;;;;;;9.51;36.60;97113.09;5006479;28;20080;-57
2022/03/25 02:13:58;;;;;;;19.33;8.82;;;;;;;9.32;37.08;97116.63;5006674;28;20053;-65
2022/03/25 02:16:44;;;;;;;22.02;10.95;;;;;;;9.33;37.92;97118.22;5005133;28;20060;-58
2022/03/25 02:19:12;;;;;;;18.88;10.18;;;;;;;9.30;37.88;97113.41;5005831;28;20540;-65
2022/03/25 02:21:42;;;;;;;25.88;12.65;;;;;;;9.25;38.21;97121.97;5004739;28;20050;-65
2022/03/25 02:24:10;;;;;;;32.85;15.00;;;;;;;9.09;38.30;97140.53;5006371;28;20054;-65
2022/03/25 02:26:37;;;;;;;34.15;16.35;;;;;;;8.59;37.84;97049.38;5004494;28;20061;-64
2022/03/25 02:29:05;;;;;;;29.98;13.95;;;;;;;9.02;38.59;97126.56;5004263;28;20050;-58
2022/03/25 02:31:31;;;;;;;26.45;11.95;;;;;;;8.48;38.18;97059.34;5010899;28;20081;-64
2022/03/25 02:34:05;;;;;;;25.65;13.85;;;;;;;8.93;38.38;97125.97;5006748;28;20060;-65
2022/03/25 02:36:38;;;;;;;50.25;19.65;;;;;;;7.79;39.44;96981.84;5005969;28;20056;-60
2022/03/25 02:39:06;;;;;;;;;;;;;;;8.67;39.41;97122.94;5019046;28;20140;-65
2022/03/25 02:41:33;;;;;;;47.67;19.55;;;;;;;8.55;39.45;97120.28;5024009;28;19990;-64
2022/03/25 02:44:00;;;;;;;75.35;28.95;;;;;;;8.39;39.93;97133.25;5025369;28;20053;-64
2022/03/25 02:46:27;;;;;;;59.80;22.27;;;;;;;7.67;41.01;97055.19;5023918;28;20046;-57
2022/03/25 02:48:53;;;;;;;42.58;17.00;;;;;;;8.28;40.64;97129.41;5025287;28;20049;-63
2022/03/25 02:51:20;;;;;;;46.67;18.08;;;;;;;8.24;40.61;97131.25;5024452;28;20063;-57
2022/03/25 02:53:47;;;;;;;49.72;18.75;;;;;;;8.19;41.06;97134.25;5025752;28;20049;-58
2022/03/25 02:56:14;;;;;;;34.33;14.30;;;;;;;7.88;41.03;97114.84;5025180;28;20524;-56
2022/03/25 02:58:41;;;;;;;35.30;15.13;;;;;;;7.85;41.80;97134.84;5025431;28;20065;-56
2022/03/25 03:01:07;;;;;;;31.23;14.93;;;;;;;7.71;41.98;97130.50;5024915;28;20068;-64
2022/03/25 03:03:34;;;;;;;86.35;32.50;;;;;;;7.73;41.00;97125.47;5025299;28;20057;-59
2022/03/25 03:06:02;;;;;;;46.90;19.30;;;;;;;7.17;42.11;97038.38;5025331;28;20493;-56
2022/03/25 03:08:30;;;;;;;46.33;19.13;;;;;;;7.60;42.42;97184.53;5025408;28;20049;-59
2022/03/25 03:10:57;;;;;;;56.60;22.08;;;;;;;7.19;42.25;97052.59;5025383;28;20061;-60
2022/03/25 03:13:23;;;;;;;21.23;11.88;;;;;;;7.53;42.06;97112.66;5025309;28;20045;-64
2022/03/25 03:15:50;;;;;;;34.35;14.82;;;;;;;6.85;42.15;97083.41;5024516;28;20049;-57
2022/03/25 03:18:20;;;;;;;40.47;16.23;;;;;;;7.52;42.11;97144.13;5024647;28;20049;-59
2022/03/25 03:20:46;;;;;;;30.25;14.43;;;;;;;7.44;42.19;97153.34;5024705;28;20050;-60
2022/03/25 03:23:13;;;;;;;25.27;11.35;;;;;;;7.11;42.47;97111.34;5023257;28;20069;-57
2022/03/25 03:25:40;;;;;;;35.33;15.07;;;;;;;6.94;42.30;97095.09;5024653;28;20053;-57
2022/03/25 03:28:07;;;;;;;25.23;10.60;;;;;;;7.21;43.21;97148.66;5023214;28;20061;-57
2022/03/25 03:30:34;;;;;;;42.00;18.30;;;;;;;7.11;42.85;97133.41;5024856;28;20053;-56
2022/03/25 03:33:05;;;;;;;40.33;16.85;;;;;;;6.85;43.49;97143.16;5024721;28;20262;-57
2022/03/25 03:35:36;;;;;;;49.40;22.88;;;;;;;7.10;43.97;97148.31;5024613;28;20077;-59
2022/03/25 03:38:03;;;;;;;38.55;20.42;;;;;;;6.94;43.90;97152.13;5020482;28;20058;-57
2022/03/25 03:40:31;;;;;;;35.15;17.05;;;;;;;6.25;44.31;97077.88;5004340;28;20046;-57
2022/03/25 03:42:57;;;;;;;36.63;16.85;;;;;;;6.75;44.62;97169.19;5003115;28;20527;-65
2022/03/25 03:45:24;;;;;;;40.85;17.77;;;;;;;6.73;44.70;97171.50;5004683;28;20075;-64
2022/03/25 03:47:52;;;;;;;29.80;13.65;;;;;;;6.73;45.13;97170.69;5003211;28;20053;-64
2022/03/25 03:50:19;;;;;;;28.42;11.50;;;;;;;6.35;45.57;97165.47;5003597;28;20520;-56
2022/03/25 03:52:46;;;;;;;23.27;10.18;;;;;;;6.06;46.38;97168.34;5005445;28;20871;-56
2022/03/25 03:55:13;;;;;;;22.50;11.02;;;;;;;5.65;46.46;97129.88;5004989;28;20062;-57
2022/03/25 03:57:40;;;;;;;36.50;15.15;;;;;;;6.16;46.74;97173.44;5004975;28;20058;-64
2022/03/25 04:00:12;;;;;;;23.65;10.95;;;;;;;5.93;46.97;97180.41;5004356;28;20050;-64
2022/03/25 04:02:41;;;;;;;23.70;11.35;;;;;;;5.68;47.31;97162.19;5004710;28;20132;-56
2022/03/25 04:05:10;;;;;;;30.38;12.43;;;;;;;5.57;47.71;97182.97;5004191;28;20128;-56
2022/03/25 04:07:48;;;;;;;24.67;12.68;;;;;;;5.63;47.62;97178.88;5003080;28;20045;-56
2022/03/25 04:10:16;;;;;;;29.38;12.45;;;;;;;5.61;47.94;97175.66;5004301;28;20136;-64
2022/03/25 04:12:43;;;;;;;30.58;12.00;;;;;;;5.52;48.33;97208.69;5004923;28;20058;-64
2022/03/25 04:15:11;;;;;;;23.67;10.38;;;;;;;5.50;48.45;97182.69;5004302;28;20346;-64
2022/03/25 04:17:42;;;;;;;30.90;9.63;;;;;;;5.08;48.81;97137.09;5004201;28;20054;-64
2022/03/25 04:20:13;;;;;;;27.55;10.13;;;;;;;5.32;49.09;97178.44;5003962;28;20066;-59
2022/03/25 04:22:41;;;;;;;36.55;10.90;;;;;;;5.21;49.29;97169.81;5004419;28;20049;-63
2022/03/25 04:25:08;;;;;;;24.95;9.32;;;;;;;5.26;49.48;97177.84;5003995;28;20091;-56
2022/03/25 04:27:55;;;;;;;21.48;10.20;;;;;;;5.35;49.09;97183.28;5003109;28;20141;-63
2022/03/25 04:30:33;;;;;;;29.15;12.25;;;;;;;5.37;49.10;97186.50;5004626;28;20057;-56
2022/03/25 04:33:01;;;;;;;30.70;11.75;;;;;;;4.93;48.82;97110.25;5003906;28;20509;-64
2022/03/25 04:35:30;;;;;;;28.30;10.43;;;;;;;5.20;49.14;97167.41;5002265;28;20058;-64
2022/03/25 04:37:57;;;;;;;32.63;12.20;;;;;;;5.31;49.27;97201.56;5004998;28;20050;-57
2022/03/25 04:40:27;;;;;;;31.13;12.63;;;;;;;5.48;49.18;97190.47;5023456;28;20057;-63
2022/03/25 04:42:56;;;;;;;34.38;14.48;;;;;;;5.50;48.86;97188.19;5023604;28;20080;-58
2022/03/25 04:45:24;;;;;;;25.35;12.98;;;;;;;5.52;49.11;97191.38;5023443;28;20065;-57
2022/03/25 04:47:52;;;;;;;26.58;11.73;;;;;;;5.59;49.10;97194.44;5022213;28;20460;-56
2022/03/25 04:50:19;;;;;;;20.08;8.85;;;;;;;5.60;49.05;97193.28;5023509;28;20057;-63
2022/03/25 04:52:46;;;;;;;23.83;10.43;;;;;;;5.38;49.01;97163.38;5023967;28;20056;-63
2022/03/25 04:55:15;;;;;;;23.23;9.48;;;;;;;5.09;49.01;97123.03;5023299;28;20049;-56
2022/03/25 04:57:42;;;;;;;23.08;10.20;;;;;;;5.59;49.16;97186.19;5023536;28;20050;-63
2022/03/25 05:00:10;;;;;;;23.73;11.18;;;;;;;5.40;49.22;97137.22;5022937;28;20075;-58
2022/03/25 05:02:37;;;;;;;31.40;12.07;;;;;;;5.64;48.50;97144.78;5023551;28;20068;-57
2022/03/25 05:05:04;;;;;;;28.70;11.13;;;;;;;5.68;48.38;97129.22;5021955;28;20073;-64
2022/03/25 05:07:31;;;;;;;34.53;14.13;;;;;;;6.11;48.19;97206.63;5023729;28;20056;-57
2022/03/25 05:09:59;;;;;;;33.10;13.07;;;;;;;6.06;48.12;97201.34;5022776;28;20057;-64
2022/03/25 05:12:27;;;;;;;35.50;13.27;;;;;;;6.05;48.60;97188.75;5023527;28;20058;-64
2022/03/25 05:14:53;;;;;;;31.95;13.65;;;;;;;6.35;48.36;97198.47;5021666;28;20057;-64
2022/03/25 05:17:20;;;;;;;43.60;14.45;;;;;;;6.02;47.95;97145.44;5023207;28;20056;-57
2022/03/25 05:19:48;;;;;;;38.10;16.45;;;;;;;6.25;47.08;97126.56;5022857;28;20056;-64
2022/03/25 05:22:14;;;;;;;41.67;15.25;;;;;;;6.86;46.55;97199.84;5021726;28;20409;-58
2022/03/25 05:24:41;;;;;;;36.40;14.68;;;;;;;6.79;46.75;97174.81;5021980;28;20520;-63
2022/03/25 05:27:08;;;;;;;33.85;16.02;;;;;;;6.79;46.46;97155.56;5022752;28;20057;-57
2022/03/25 05:29:35;;;;;;;29.65;14.02;;;;;;;7.17;46.33;97186.31;5022818;28;20512;-63
2022/03/25 05:32:01;;;;;;;47.08;18.50;;;;;;;7.45;45.61;97201.78;5023158;28;20056;-57
2022/03/25 05:34:28;;;;;;;63.80;26.63;;;;;;;7.60;45.35;97184.53;5023082;28;20049;-63
2022/03/25 05:36:55;;;;;;;32.63;15.90;;;;;;;7.78;44.83;97196.09;5021776;28;20496;-64
2022/03/25 05:39:22;;;;;;;34.35;13.45;;;;;;;7.89;45.22;97182.66;5011697;28;20061;-64
2022/03/25 05:41:49;;;;;;;39.25;15.48;;;;;;;7.06;44.63;97042.78;5005828;28;20437;-64
2022/03/25 05:44:15;;;;;;;40.80;14.95;;;;;;;7.83;45.17;97181.25;5005472;28;20045;-56
2022/03/25 05:46:43;;;;;;;32.13;15.98;;;;;;;7.68;45.83;97131.22;5005554;28;20056;-63
2022/03/25 05:49:09;;;;;;;38.45;15.02;;;;;;;8.27;44.31;97177.44;5006517;28;20050;-58
2022/03/25 05:51:37;;;;;;;31.45;16.02;;;;;;;8.56;43.50;97182.59;5006485;28;20449;-64
2022/03/25 05:54:03;;;;;;;37.33;16.15;;;;;;;8.66;43.67;97187.63;5004485;28;20066;-64
2022/03/25 05:56:30;;;;;;;33.25;16.08;;;;;;;8.80;43.24;97166.66;5004645;28;20516;-57
2022/03/25 05:58:57;;;;;;;32.33;13.88;;;;;;;9.02;42.67;97185.41;5016090;28;20076;-61
2022/03/25 06:01:24;;;;;;;31.48;14.93;;;;;;;9.06;43.48;97191.81;5013147;28;20050;-62
2022/03/25 06:03:51;;;;;;;32.60;13.88;;;;;;;8.37;43.49;97063.78;5005923;28;20049;-62
2022/03/25 06:06:17;;;;;;;33.70;13.50;;;;;;;9.33;43.61;97184.56;5024001;28;20063;-57
2022/03/25 06:08:49;;;;;;;27.17;13.25;;;;;;;9.47;43.45;97187.66;5025596;28;20103;-62
2022/03/25 06:11:16;;;;;;;29.38;12.48;;;;;;;9.15;42.93;97150.19;5026059;28;20059;-62
2022/03/25 06:13:43;;;;;;;26.27;12.15;;;;;;;9.53;42.83;97186.22;5026006;28;20060;-60
2022/03/25 06:16:10;;;;;;;24.80;11.95;;;;;;;9.71;42.56;97195.72;5025852;28;20045;-63
2022/03/25 06:18:36;;;;;;;24.00;11.98;;;;;;;9.33;42.24;97145.88;5020282;28;20054;-58
2022/03/25 06:21:04;;;;;;;26.42;12.02;;;;;;;9.52;42.49;97175.53;5005990;28;20062;-63
2022/03/25 06:23:31;;;;;;;23.27;12.07;;;;;;;9.84;41.94;97171.50;5004017;28;20057;-63
2022/03/25 06:25:58;;;;;;;29.10;13.85;;;;;;;10.17;41.43;97180.97;5005767;28;20050;-63
2022/03/25 06:28:27;;;;;;;30.65;12.48;;;;;;;10.02;40.97;97140.28;5009161;28;20062;-63
2022/03/25 06:30:54;;;;;;;33.22;12.73;;;;;;;10.48;40.62;97186.34;5012294;28;20132;-63
2022/03/25 06:33:22;;;;;;;32.83;13.20;;;;;;;10.72;39.98;97190.75;5016723;28;20048;-63
2022/03/25 06:35:51;;;;;;;24.60;11.88;;;;;;;10.68;39.09;97156.63;5017304;28;20060;-63
2022/03/25 06:38:18;;;;;;;40.03;12.82;;;;;;;10.95;39.16;97183.25;5022301;28;20421;-63
2022/03/25 06:40:49;;;;;;;23.02;11.13;;;;;;;11.11;38.83;97189.47;5003695;28;20136;-63
2022/03/25 06:43:16;;;;;;;29.02;11.98;;;;;;;10.93;38.14;97107.19;5005739;28;20540;-63
2022/03/25 06:45:43;;;;;;;27.83;12.77;;;;;;;10.66;37.81;97029.59;5005477;28;20104;-63
2022/03/25 06:48:10;;;;;;;23.10;10.80;;;;;;;10.93;38.31;97168.16;5005224;28;20511;-62
2022/03/25 06:50:37;;;;;;;22.92;11.82;;;;;;;11.49;37.33;97169.09;5004896;28;20129;-58
2022/03/25 06:53:05;;;;;;;23.98;11.65;;;;;;;11.94;36.44;97180.09;5005364;28;20483;-57
2022/03/25 06:55:33;;;;;;;24.70;11.27;;;;;;;12.11;36.53;97179.53;5003991;28;20054;-57
2022/03/25 06:58:00;;;;;;;24.77;12.77;;;;;;;12.35;35.97;97179.03;5004034;28;20049;-58
2022/03/25 07:00:27;;;;;;;23.50;11.02;;;;;;;12.40;36.04;97152.91;5005968;28;20046;-66
2022/03/25 07:02:54;;;;;;;20.60;11.75;;;;;;;12.35;35.94;97144.91;5024175;28;20057;-66
2022/03/25 07:05:23;;;;;;;21.92;11.30;;;;;;;12.12;36.39;97089.50;5021014;28;20049;-61
2022/03/25 07:07:50;;;;;;;21.13;10.80;;;;;;;12.55;36.57;97155.47;5024949;28;20052;-61
2022/03/25 07:10:22;;;;;;;20.45;11.30;;;;;;;12.41;36.26;97126.75;5023826;28;20054;-60
2022/03/25 07:12:51;;;;;;;22.17;11.93;;;;;;;12.29;36.21;97058.34;5006655;28;20437;-58
2022/03/25 07:15:18;;;;;;;23.13;11.73;;;;;;;13.17;34.80;97134.25;5015053;28;20414;-59
2022/03/25 07:17:45;;;;;;;20.63;11.25;;;;;;;13.10;34.73;97104.38;5025231;28;20065;-59
2022/03/25 07:20:14;;;;;;;22.13;11.57;;;;;;;13.93;33.90;97163.81;5024313;28;20057;-65
2022/03/25 07:22:47;;;;;;;18.20;11.35;;;;;;;13.53;34.24;97187.00;5009021;28;20058;-65
2022/03/25 07:25:15;;;;;;;18.10;10.32;;;;;;;13.51;33.63;97147.63;5007313;28;20527;-59
2022/03/25 07:27:42;;;;;;;21.30;11.52;;;;;;;13.86;33.36;97140.72;5020135;28;20058;-60
2022/03/25 07:30:10;;;;;;;23.33;10.98;;;;;;;14.25;33.51;97166.81;5011271;28;20060;-70
2022/03/25 07:32:37;;;;;;;19.00;11.48;;;;;;;14.39;32.77;97169.66;5012491;28;20056;-59
2022/03/25 07:35:04;;;;;;;38.30;11.55;;;;;;;13.67;32.47;97013.75;5013010;28;20460;-58
2022/03/25 07:37:31;;;;;;;19.70;11.68;;;;;;;14.92;31.00;97165.06;5004628;28;20046;-62
2022/03/25 07:39:57;;;;;;;21.92;11.15;;;;;;;14.90;30.61;97126.41;5017016;28;20053;-62
2022/03/25 07:42:24;;;;;;;20.55;11.35;;;;;;;15.25;30.24;97161.91;5023205;28;20449;-60
2022/03/25 07:44:51;;;;;;;19.20;11.10;;;;;;;15.50;29.80;97157.16;5022691;28;21144;-61
2022/03/25 07:47:17;;;;;;;18.27;11.77;;;;;;;15.58;29.88;97125.22;5024151;28;20061;-61
2022/03/25 07:49:45;;;;;;;22.23;10.77;;;;;;;15.70;29.57;97143.56;5023266;28;20495;-62
2022/03/25 07:52:12;;;;;;;16.73;10.77;;;;;;;15.78;29.17;97134.78;5008694;28;20200;-64
2022/03/25 07:54:39;;;;;;;27.52;14.10;;;;;;;16.11;29.66;97159.44;5017637;28;20773;-64
2022/03/25 07:57:06;;;;;;;20.00;12.27;;;;;;;16.25;28.99;97148.22;5012530;28;20046;-57
2022/03/25 07:59:33;;;;;;;19.73;12.02;;;;;;;16.04;29.85;97159.47;5021810;28;20053;-60
2022/03/25 08:02:00;;;;;;;17.25;10.80;;;;;;;15.68;29.92;97134.78;5017579;28;20049;-60
2022/03/25 08:04:27;;;;;;;17.77;11.07;;;;;;;15.62;29.65;97151.16;5008573;28;20061;-56
2022/03/25 08:06:54;;;;;;;19.45;11.35;;;;;;;15.68;29.65;97141.16;5013723;28;20058;-61
2022/03/25 08:09:21;;;;;;;19.88;11.45;;;;;;;15.51;29.93;97102.09;5015508;28;20091;-57
2022/03/25 08:11:48;;;;;;;20.10;11.45;;;;;;;15.54;30.75;97146.75;5023466;28;20140;-60
2022/03/25 08:14:18;;;;;;;19.48;11.43;;;;;;;15.24;30.36;97114.88;5018483;28;20532;-56
2022/03/25 08:16:45;;;;;;;16.85;10.70;;;;;;;15.33;30.17;97135.59;5018964;28;20049;-61
2022/03/25 08:19:12;;;;;;;20.98;11.00;;;;;;;15.61;30.33;97140.38;5017087;28;20049;-61
2022/03/25 08:21:39;;;;;;;18.65;10.60;;;;;;;15.77;29.98;97135.97;5012955;28;20054;-57
2022/03/25 08:29:37;;;;;;;21.40;12.43;;;;;;;15.58;29.90;97037.88;5003254;28;20532;-56
2022/03/25 08:32:04;;;;;;;23.00;11.95;;;;;;;16.36;29.07;97120.22;5003948;28;20248;-56
2022/03/25 08:34:31;;;;;;;22.60;12.00;;;;;;;16.02;28.94;97133.13;5003703;28;20062;-57
2022/03/25 08:36:58;;;;;;;19.52;12.55;;;;;;;16.31;29.03;97112.25;5002039;28;20535;-62
2022/03/25 08:39:24;;;;;;;18.48;10.85;;;;;;;16.48;28.31;97131.78;5003616;28;20841;-62
2022/03/25 08:41:51;;;;;;;25.17;12.10;;;;;;;16.25;28.45;97077.53;5003674;28;20132;-57
2022/03/25 08:44:18;;;;;;;21.35;11.60;;;;;;;16.50;27.09;97067.84;5002581;28;20144;-62
2022/03/25 08:46:45;;;;;;;18.25;9.48;;;;;;;16.78;26.11;97102.44;5002163;28;20054;-61
2022/03/25 08:49:12;;;;;;;16.88;9.65;;;;;;;17.00;25.60;97115.09;4981766;28;20053;-56
2022/03/25 08:51:39;;;;;;;18.70;10.02;;;;;;;17.06;24.59;97108.63;5003715;28;20140;-57
2022/03/25 08:54:08;;;;;;;17.23;10.07;;;;;;;16.54;24.38;97011.88;5003655;28;20053;-61
2022/03/25 08:56:35;;;;;;;15.35;9.65;;;;;;;17.19;24.19;97111.75;5003277;28;20085;-56
2022/03/25 08:59:02;;;;;;;18.50;9.80;;;;;;;17.12;24.33;97106.22;5018485;28;20062;-61
2022/03/25 09:01:29;;;;;;;20.00;10.23;;;;;;;17.04;24.40;97105.44;5003312;28;20180;-57
2022/03/25 09:03:56;;;;;;;18.90;10.82;;;;;;;17.18;24.12;97093.38;5003830;28;20046;-56
2022/03/25 09:06:23;;;;;;;17.13;10.00;;;;;;;17.13;24.23;97107.81;5003741;28;20080;-62
2022/03/25 09:08:51;;;;;;;18.50;9.30;;;;;;;17.06;24.30;97102.25;5003226;28;20148;-60
2022/03/25 09:11:18;;;;;;;18.15;10.18;;;;;;;17.13;24.36;97107.81;5001846;28;20515;-57
2022/03/25 09:13:45;;;;;;;18.20;10.10;;;;;;;17.20;24.28;97107.75;5005689;28;20149;-62
2022/03/25 09:16:13;;;;;;;16.20;8.43;;;;;;;17.17;23.98;97102.94;5006829;28;20509;-62
2022/03/25 09:18:40;;;;;;;16.55;10.00;;;;;;;16.50;24.27;97009.09;5009601;28;20508;-56
2022/03/25 09:21:07;;;;;;;16.35;9.48;;;;;;;17.01;23.83;97105.50;5008380;28;20081;-58
2022/03/25 09:23:34;;;;;;;15.60;9.35;;;;;;;16.96;24.31;97105.94;5007864;28;20049;-57
2022/03/25 09:26:01;;;;;;;17.38;9.63;;;;;;;17.07;24.01;97115.03;5006518;28;20503;-62
2022/03/25 09:28:28;;;;;;;15.68;9.73;;;;;;;17.27;24.83;97113.28;5006929;28;20141;-63
2022/03/25 09:30:56;;;;;;;15.65;9.40;;;;;;;17.40;23.85;97111.59;5006999;28;20628;-56
2022/03/25 09:33:22;;;;;;;16.98;10.10;;;;;;;17.41;24.66;97101.97;5007391;28;20049;-63
2022/03/25 09:35:49;;;;;;;17.48;8.90;;;;;;;17.34;23.93;97124.44;5006485;28;20050;-57
2022/03/25 09:38:16;;;;;;;19.20;11.05;;;;;;;16.92;24.52;97091.16;5006684;28;20049;-63
2022/03/25 09:40:43;;;;;;;19.85;10.60;;;;;;;16.62;25.08;97060.97;5006608;28;20087;-57
2022/03/25 09:43:11;;;;;;;20.60;11.10;;;;;;;17.19;25.28;97111.75;5006883;28;20057;-56
2022/03/25 09:45:39;;;;;;;24.75;10.35;;;;;;;17.29;24.24;97108.84;5005323;28;20050;-57
2022/03/25 09:48:06;;;;;;;14.73;9.35;;;;;;;16.89;24.67;97036.00;5005226;28;20426;-56
2022/03/25 09:50:36;;;;;;;17.77;10.13;;;;;;;17.11;24.51;97105.41;5006667;28;20445;-63
2022/03/25 09:53:04;;;;;;;21.88;9.98;;;;;;;16.39;24.77;97030.72;5006839;28;20067;-57
2022/03/25 09:55:44;;;;;;;19.77;10.35;;;;;;;17.10;25.09;97097.44;5005551;28;20072;-57
2022/03/25 09:58:18;;;;;;;16.50;9.57;;;;;;;17.05;24.89;97072.66;5006448;28;20447;-63
2022/03/25 10:00:50;;;;;;;25.58;10.15;;;;;;;17.23;24.42;97107.69;5006090;28;20429;-56
2022/03/25 10:03:27;;;;;;;20.35;11.07;;;;;;;17.24;24.91;97097.31;5005282;28;20049;-57
2022/03/25 10:05:58;;;;;;;;;;;;;;;17.22;25.25;97102.53;5006833;28;20112;-64
2022/03/25 10:08:40;;;;;;;18.58;10.10;;;;;;;17.28;25.07;97081.25;5006512;28;19932;-57
2022/03/25 10:11:23;;;;;;;17.10;10.30;;;;;;;17.27;24.71;97102.09;5006070;28;20519;-63
2022/03/25 10:14:29;;;;;;;16.98;9.93;;;;;;;17.36;24.71;97094.00;5006401;28;20129;-60
2022/03/25 10:16:55;;;;;;;21.05;10.63;;;;;;;17.56;24.65;97131.47;5006146;28;20096;-57
2022/03/25 10:19:28;;;;;;;13.75;9.65;;;;;;;17.71;24.78;97110.50;5005879;28;20068;-64
2022/03/25 10:21:55;;;;;;;16.65;10.70;;;;;;;17.78;24.91;97099.25;5004780;28;20375;-64
2022/03/25 10:24:39;;;;;;;16.20;9.45;;;;;;;17.79;23.87;97106.44;5003494;28;20150;-57
2022/03/25 10:27:15;;;;;;;12.93;8.90;;;;;;;17.10;23.66;97047.84;5006316;28;20080;-64
2022/03/25 10:29:45;;;;;;;16.52;9.80;;;;;;;16.98;23.75;97005.53;5005990;28;20061;-64
2022/03/25 10:32:18;;;;;;;17.75;9.77;;;;;;;17.61;23.36;97101.00;5006048;28;20523;-63
2022/03/25 10:34:59;;;;;;;;;;;;;;;17.67;23.69;97092.97;5006582;28;20401;-64
2022/03/25 10:37:28;;;;;;;18.00;10.57;;;;;;;17.63;23.79;97083.78;5004387;28;20313;-62
2022/03/25 10:39:56;;;;;;;17.45;9.43;;;;;;;17.56;23.62;97093.03;5005376;28;20054;-57
2022/03/25 10:42:24;;;;;;;17.77;10.30;;;;;;;17.44;24.03;97095.53;5025394;28;20052;-57
2022/03/25 10:44:56;;;;;;;14.48;8.93;;;;;;;17.29;22.68;97071.69;5039319;28;20566;-57
2022/03/25 10:47:26;;;;;;;18.13;9.95;;;;;;;17.35;23.35;97093.22;5025471;28;20491;-62
2022/03/25 10:49:57;;;;;;;15.52;8.93;;;;;;;17.44;24.01;97098.31;5024077;28;20060;-57
2022/03/25 10:52:30;;;;;;;15.65;9.95;;;;;;;17.48;23.66;97093.53;5025502;28;20053;-63
2022/03/25 10:55:20;;;;;;;12.95;9.60;;;;;;;17.61;23.19;97106.59;5024174;28;20053;-57
2022/03/25 10:57:56;;;;;;;17.13;9.90;;;;;;;17.44;23.03;97103.94;5025507;28;20483;-63
2022/03/25 11:00:24;;;;;;;17.77;9.15;;;;;;;17.48;23.32;97099.91;5024197;28;20064;-57
2022/03/25 11:02:54;;;;;;;16.52;10.25;;;;;;;17.70;23.13;97081.69;5024831;28;20081;-57
2022/03/25 11:05:22;;;;;;;19.27;9.90;;;;;;;17.35;23.18;97042.00;5023405;28;20053;-57
2022/03/25 11:07:49;;;;;;;16.98;8.85;;;;;;;17.67;22.95;97090.94;5025608;28;20075;-63
2022/03/25 11:10:17;;;;;;;16.05;9.05;;;;;;;17.80;22.58;97117.22;5025454;28;20056;-57
2022/03/25 11:12:46;;;;;;;17.85;9.73;;;;;;;17.21;23.06;97047.75;5023380;28;20069;-57
2022/03/25 11:15:15;;;;;;;17.40;10.25;;;;;;;17.51;22.81;97106.72;5024936;28;20053;-60
2022/03/25 11:17:43;;;;;;;13.95;9.35;;;;;;;17.76;22.21;97102.47;5025321;28;20053;-64
2022/03/25 11:20:12;;;;;;;16.23;8.95;;;;;;;17.69;22.05;97068.09;5024865;28;20083;-56
2022/03/25 11:23:01;;;;;;;14.88;8.77;;;;;;;17.96;21.85;97105.44;5024814;28;20564;-64
2022/03/25 11:25:30;;;;;;;15.93;9.15;;;;;;;18.03;22.18;97100.56;5024802;28;20603;-63
2022/03/25 11:28:08;;;;;;;15.30;8.65;;;;;;;18.15;21.33;97101.25;5023165;28;20065;-63
2022/03/25 11:30:36;;;;;;;14.95;7.85;;;;;;;18.04;20.69;97096.56;5024569;28;20088;-57
2022/03/25 11:33:06;;;;;;;14.27;9.40;;;;;;;18.11;21.05;97107.66;5024661;28;20080;-59